• Join FlightAware (Why Join?)
  • Login
  • US Flag 
01:08PM EDT


 

Airport Tracker/Info


-or-


 

Live Flight TrackerFlight Track Log ✈ N88JA ✈ 02-May-2013 ✈ KMFD - KRZT

Flight Track Log - Related Links

Times and Time Zones

All times are in EDT time to prevent confusion due to time zone crossing. See the N88JA flight status page for this flight to view local times or setup timezone preferences in your user account.

Time Position Orientation Groundspeed Altitude Reporting Facility
EDT Latitude Longitude Course Direction KTS MPH feet Rate Location/Type
11:25AM 40.7681 -82.5036 190° South 67 77 4,400  Level Indianapolis Center
11:26AM 40.7517 -82.5153 208° Southwest 67 77 5,000 480 Climbing Indianapolis Center
11:27AM 40.7372 -82.5383 230° Southwest 76 87 5,500 480 Climbing Indianapolis Center
11:28AM 40.6720 -82.5256 189° South  Level FlightAware Approximate
11:28AM 40.7214 -82.5614 228° Southwest 83 96 6,000  Level Indianapolis Center
11:29AM 40.6479 -82.5304 189° South  Level FlightAware Approximate
11:29AM 40.6942 -82.5856 214° Southwest 97 112 6,000  Level Indianapolis Center
11:30AM 40.6239 -82.5354 190° South  Level FlightAware Approximate
11:30AM 40.6636 -82.5867 182° South 103 119 5,900  Level Indianapolis Center
11:31AM 40.5998 -82.5408 190° South  Level FlightAware Approximate
11:32AM 40.6344 -82.5883 182° South 105 121 6,000  Level Indianapolis Center
11:33AM 40.6064 -82.5889 181° South 101 116 6,000  Level Indianapolis Center
11:34AM 40.5781 -82.5919 185° South 101 116 6,000 -60 Level Indianapolis Center
11:35AM 40.5494 -82.5875 173° South 102 117 5,900  Descending Indianapolis Center
11:36AM 40.5186 -82.5892 182° South 99 114 6,000 60 Climbing Indianapolis Center
11:37AM 40.4881 -82.5933 186° South 91 105 6,100  Climbing Indianapolis Center
11:38AM 40.4661 -82.6042 201° Southwest 98 113 6,100 -60 Level Indianapolis Center
11:39AM 40.4397 -82.6247 211° Southwest 105 121 6,000 -60 Descending Indianapolis Center
11:40AM 40.4164 -82.6306 191° South 100 115 6,000  Level Indianapolis Center
11:41AM 40.3822 -82.6444 197° South 102 117 6,000  Level Indianapolis Center
11:42AM 40.3575 -82.6475 185° South 102 117 6,000  Level Indianapolis Center
11:43AM 40.3300 -82.6617 201° Southwest 104 120 6,000  Level Indianapolis Center
11:44AM 40.3019 -82.6692 192° South 102 117 6,000  Level Indianapolis Center
11:45AM 40.2733 -82.6783 194° South 105 121 6,000  Level Indianapolis Center
11:46AM 40.2456 -82.6978 208° Southwest 104 120 6,100  Climbing Indianapolis Center
11:47AM 40.2169 -82.7094 197° South 104 120 6,000 -60 Descending Indianapolis Center
11:48AM 40.1825 -82.7206 194° South 109 125 6,000 -60 Level Indianapolis Center
11:49AM 40.1581 -82.7453 218° Southwest 117 135 5,900 -60 Descending Indianapolis Center
11:50AM 40.1308 -82.7450 180° South 97 112 5,900  Level Indianapolis Center
11:51AM 40.1056 -82.7447 180° South 95 109 6,000 60 Climbing Indianapolis Center
11:52AM 40.0781 -82.7500 188° South 107 123 6,100  Climbing Indianapolis Center
11:53AM 40.0475 -82.7711 208° Southwest 114 131 6,100 -60 Level Indianapolis Center
11:54AM 40.0214 -82.7844 201° Southwest 110 127 6,000 -60 Descending Indianapolis Center
11:55AM 39.9936 -82.7922 192° South 104 120 6,000 60 Level Indianapolis Center
11:55AM 39.9856 -82.7928 183° South 107 123 6,100  Climbing Indianapolis Center
11:56AM 39.9636 -82.8050 203° Southwest 106 122 6,000 -120 Descending Indianapolis Center
11:56AM 39.9603 -82.8075 210° Southwest 105 121 6,000  Level Indianapolis Center
11:57AM 39.9336 -82.8153 193° South 106 122 6,000  Level Indianapolis Center
11:57AM 39.9297 -82.8156 183° South 108 124 6,000 60 Level Indianapolis Center
11:58AM 39.9061 -82.8203 189° South 102 117 6,100 60 Climbing Indianapolis Center
11:58AM 39.9011 -82.8211 187° South 106 122 6,100 -420 Level Indianapolis Center
11:59AM 39.8786 -82.8228 183° South 97 112 5,700 -540 Descending Indianapolis Center
11:59AM 39.8739 -82.8236 188° South 100 115 5,600 -900 Descending Indianapolis Center
12:00PM 39.8553 -82.8283 191° South 87 100 4,800 -1,020 Descending Indianapolis Center
12:00PM 39.8453 -82.8306 190° South 93 107 4,600 -720 Descending Indianapolis Center
12:01PM 39.8297 -82.8336 189° South 91 105 4,100 -600 Descending Indianapolis Center
12:01PM 39.8192 -82.8322 174° South 91 105 4,000 -120 Descending Indianapolis Center
12:02PM 39.7981 -82.8381 192° South 108 124 4,000  Level Indianapolis Center
12:02PM 39.7911 -82.8411 199° South 97 112 4,000  Level Indianapolis Center
12:03PM 39.7717 -82.8569 212° Southwest 108 124 4,000  Level Indianapolis Center
12:03PM 39.7636 -82.8606 199° South 105 121 4,000  Level Indianapolis Center
12:04PM 39.7469 -82.8811 223° Southwest 112 129 4,000 60 Level Indianapolis Center
12:04PM 39.7397 -82.8872 213° Southwest 109 125 4,100  Climbing Indianapolis Center
12:05PM 39.7228 -82.9000 210° Southwest 105 121 4,000 -120 Descending Indianapolis Center
12:06PM 39.7147 -82.9056 208° Southwest 106 122 4,000 -300 Level Indianapolis Center
12:06PM 39.6947 -82.9106 191° South 106 122 3,700 -720 Descending Indianapolis Center
12:07PM 39.6850 -82.9136 194° South 106 122 3,300 -1,140 Descending Indianapolis Center
12:07PM 39.6656 -82.9100 172° South 102 117 2,600 -1,020 Descending Indianapolis Center
12:08PM 39.6586 -82.9086 171° South 100 115 2,300 -240 Descending Indianapolis Center
12:09PM 39.6381 -82.9333 223° Southwest 103 119 2,300  Level Indianapolis Center